Terminal Aerodrome Forecast
Issued by NWS Shreveport, LA

Home | Current Version | Previous Version | Text Only | Print | Product List | Glossary On
Versions: 1 2 3 4 5 6 7 8 9 10 11 12 13 14 15 16 17 18 19 20 21 22 23
000
FTUS44 KSHV 300547
TAFTXK
TAF
KTXK 300547Z 3006/3106 VRB03KT P6SM -SHRA VCTS BKN050CB BKN150
      TEMPO 3010/3014 4SM BR FEW030
     FM301500 15006KT P6SM SCT040 SCT150
     FM302100 14006KT P6SM VCTS BKN050CB OVC150
     FM310200 14003KT P6SM BKN250=

USA.gov is the U.S. government's official web portal to all federal, state and local government web resources and services.